Time;durP1;ratioP1;P1;durP2;ratioP2;P2;SDS_P1;SDS_P2;PMS_P1;PMS_P2;Temp;Humidity;BMP_temperature;BMP_pressure;BME280_temperature;BME280_humidity;BME280_pressure;Samples;Min_cycle;Max_cycle;Signal;HPM_P1;HPM_P2
2023/10/31 00:02:19;;;;;;;;;;;11.40;99.90;;;;;;5037614;28;19931;-90
2023/10/31 00:04:45;;;;;;;;;;;11.40;99.90;;;;;;5064074;28;20421;-90
2023/10/31 00:07:11;;;;;;;;;;;11.40;99.90;;;;;;5032092;28;19936;-90
2023/10/31 00:09:39;;;;;;;;;;;11.40;99.90;;;;;;5063641;28;20317;-89
2023/10/31 00:12:04;;;;;;;;;;;11.50;99.90;;;;;;5048681;28;20444;-90
2023/10/31 00:14:30;;;;;;;;;;;11.40;99.90;;;;;;5039753;28;19963;-90
2023/10/31 00:16:56;;;;;;;;;;;11.50;99.90;;;;;;5039999;28;19931;-90
2023/10/31 00:19:21;;;;;;;;;;;11.50;99.90;;;;;;5062447;28;19940;-92
2023/10/31 00:21:47;;;;;;;;;;;11.50;99.90;;;;;;5030817;28;19967;-92
2023/10/31 00:24:13;;;;;;;;;;;11.50;99.90;;;;;;5048467;28;20456;-94
2023/10/31 00:26:38;;;;;;;;;;;11.40;99.90;;;;;;5039799;28;20339;-92
2023/10/31 00:29:04;;;;;;;;;;;11.40;99.90;;;;;;5034400;28;19924;-89
2023/10/31 00:31:29;;;;;;;;;;;11.40;99.90;;;;;;5074463;28;20367;-91
2023/10/31 00:33:55;;;;;;;;;;;11.30;99.90;;;;;;5046044;28;19924;-90
2023/10/31 00:36:21;;;;;;;;;;;11.30;99.90;;;;;;5043077;28;19925;-92
2023/10/31 00:38:46;;;;;;;;;;;11.20;99.90;;;;;;5025834;28;19935;-93
2023/10/31 00:41:12;;;;;;;;;;;11.20;99.90;;;;;;5060551;28;19998;-92
2023/10/31 00:43:37;;;;;;;;;;;11.10;99.90;;;;;;5057773;28;19984;-92
2023/10/31 00:46:03;;;;;;;;;;;11.00;99.90;;;;;;5076651;28;20015;-94
2023/10/31 00:48:29;;;;;;;;;;;11.00;99.90;;;;;;5071271;28;19951;-89
2023/10/31 00:50:54;;;;;;;;;;;10.90;99.90;;;;;;5045108;28;19928;-92
2023/10/31 00:53:20;;;;;;;;;;;10.90;99.90;;;;;;5047969;28;20338;-91
2023/10/31 00:55:46;;;;;;;;;;;10.90;99.90;;;;;;5086579;28;19924;-90
2023/10/31 00:58:11;;;;;;;;;;;10.90;99.90;;;;;;5046446;28;19967;-91
2023/10/31 01:00:37;;;;;;;;;;;10.80;99.90;;;;;;5065022;28;19924;-91
2023/10/31 01:03:03;;;;;;;;;;;10.80;99.90;;;;;;5050080;28;19963;-91
2023/10/31 01:05:28;;;;;;;;;;;10.70;99.90;;;;;;5094008;28;19950;-91
2023/10/31 01:07:54;;;;;;;;;;;10.70;99.90;;;;;;5075178;28;20340;-89
2023/10/31 01:10:20;;;;;;;;;;;10.60;99.90;;;;;;5075149;28;19924;-90
2023/10/31 01:12:46;;;;;;;;;;;10.60;99.90;;;;;;5091271;28;19939;-92
2023/10/31 01:15:11;;;;;;;;;;;10.60;99.90;;;;;;5060679;28;19933;-92
2023/10/31 01:17:37;;;;;;;;;;;10.60;99.90;;;;;;5045768;28;19931;-90
2023/10/31 01:20:03;;;;;;;;;;;10.50;99.90;;;;;;5073785;28;19947;-91
2023/10/31 01:22:28;;;;;;;;;;;10.50;99.90;;;;;;5027591;28;19928;-89
2023/10/31 01:24:54;;;;;;;;;;;10.40;99.90;;;;;;5045543;28;19936;-93
2023/10/31 01:27:19;;;;;;;;;;;10.40;99.90;;;;;;5057476;28;19928;-95
2023/10/31 01:29:45;;;;;;;;;;;10.30;99.90;;;;;;5061400;28;19924;-92
2023/10/31 01:32:11;;;;;;;;;;;10.20;99.90;;;;;;5058676;28;19924;-94
2023/10/31 01:34:37;;;;;;;;;;;10.20;99.90;;;;;;5059197;28;19928;-93
2023/10/31 01:37:03;;;;;;;;;;;10.10;99.90;;;;;;5061878;28;19932;-92
2023/10/31 01:39:28;;;;;;;;;;;10.10;99.90;;;;;;5067260;28;19990;-95
2023/10/31 01:41:54;;;;;;;;;;;10.00;99.90;;;;;;5036187;28;19963;-92
2023/10/31 01:44:20;;;;;;;;;;;10.00;99.90;;;;;;5048764;28;19980;-93
2023/10/31 01:46:46;;;;;;;;;;;10.00;99.90;;;;;;5037551;28;19932;-92
2023/10/31 01:49:12;;;;;;;;;;;9.90;99.90;;;;;;5064857;28;20228;-95
2023/10/31 01:51:38;;;;;;;;;;;9.90;99.90;;;;;;5064014;28;19924;-94
2023/10/31 01:54:03;;;;;;;;;;;9.90;99.90;;;;;;5084791;28;19943;-95
2023/10/31 01:56:29;;;;;;;;;;;9.90;99.90;;;;;;5041540;28;19951;-94
2023/10/31 01:58:55;;;;;;;;;;;9.90;99.90;;;;;;5062025;28;19931;-95
2023/10/31 02:01:21;;;;;;;;;;;9.90;99.90;;;;;;5113932;28;19925;-95
2023/10/31 02:03:47;;;;;;;;;;;9.90;99.90;;;;;;5085148;28;19947;-95
2023/10/31 02:06:13;;;;;;;;;;;10.00;99.90;;;;;;5096014;28;19928;-96
2023/10/31 02:08:38;;;;;;;;;;;10.00;99.90;;;;;;5034866;28;19924;-94
2023/10/31 02:11:05;;;;;;;;;;;9.90;99.90;;;;;;5052422;28;20371;-94
2023/10/31 02:13:31;;;;;;;;;;;10.00;99.90;;;;;;5045427;28;19968;-95
2023/10/31 02:15:56;;;;;;;;;;;9.90;99.90;;;;;;5056455;28;19949;-94
2023/10/31 02:18:22;;;;;;;;;;;9.90;99.90;;;;;;5070143;28;19928;-94
2023/10/31 02:20:48;;;;;;;;;;;9.90;99.90;;;;;;5038298;28;19924;-94
2023/10/31 02:23:15;;;;;;;;;;;9.90;99.90;;;;;;5033742;28;20395;-95
2023/10/31 02:25:40;;;;;;;;;;;9.90;99.90;;;;;;5070810;28;19974;-94
2023/10/31 02:28:06;;;;;;;;;;;9.90;99.90;;;;;;5077774;28;20379;-94
2023/10/31 02:30:32;;;;;;;;;;;9.90;99.90;;;;;;5099586;28;19939;-94
2023/10/31 02:32:57;;;;;;;;;;;9.90;99.90;;;;;;5047773;28;19924;-95
2023/10/31 02:35:23;;;;;;;;;;;9.90;99.90;;;;;;5037873;28;19929;-93
2023/10/31 02:37:49;;;;;;;;;;;9.90;99.90;;;;;;5060913;28;19970;-94
2023/10/31 02:40:14;;;;;;;;;;;9.90;99.90;;;;;;5095075;28;19929;-95
2023/10/31 02:42:40;;;;;;;;;;;9.80;99.90;;;;;;5051323;28;20004;-92
2023/10/31 02:45:06;;;;;;;;;;;9.80;99.90;;;;;;5101032;28;19928;-92
2023/10/31 02:47:32;;;;;;;;;;;9.80;99.90;;;;;;5098385;28;19929;-93
2023/10/31 02:49:57;;;;;;;;;;;9.90;99.90;;;;;;5065943;28;20402;-93
2023/10/31 02:52:23;;;;;;;;;;;9.80;99.90;;;;;;5046488;28;19929;-92
2023/10/31 02:54:49;;;;;;;;;;;9.90;99.90;;;;;;5050150;28;20398;-94
2023/10/31 02:57:15;;;;;;;;;;;9.90;99.90;;;;;;5077178;28;19924;-92
2023/10/31 02:59:40;;;;;;;;;;;9.90;99.90;;;;;;5058836;28;19930;-93
2023/10/31 03:02:06;;;;;;;;;;;9.90;99.90;;;;;;5028430;28;19963;-93
2023/10/31 03:04:32;;;;;;;;;;;9.90;99.90;;;;;;5050567;28;19925;-92
2023/10/31 03:06:57;;;;;;;;;;;9.90;99.90;;;;;;5080778;28;19993;-92
2023/10/31 03:09:23;;;;;;;;;;;9.90;99.90;;;;;;5051078;28;20418;-91
2023/10/31 03:11:48;;;;;;;;;;;9.90;99.90;;;;;;5042752;28;19964;-94
2023/10/31 03:14:14;;;;;;;;;;;9.90;99.90;;;;;;5028323;28;19948;-94
2023/10/31 03:16:40;;;;;;;;;;;9.90;99.90;;;;;;5055969;28;19952;-94
2023/10/31 03:19:05;;;;;;;;;;;10.00;99.90;;;;;;5040627;28;19956;-92
2023/10/31 03:21:31;;;;;;;;;;;10.00;99.90;;;;;;5042638;28;19924;-94
2023/10/31 03:23:57;;;;;;;;;;;10.00;99.90;;;;;;5043448;28;19929;-93
2023/10/31 03:26:22;;;;;;;;;;;10.00;99.90;;;;;;5073650;28;19933;-93
2023/10/31 03:28:48;;;;;;;;;;;10.00;99.90;;;;;;5071739;28;19936;-94
2023/10/31 03:31:14;;;;;;;;;;;10.00;99.90;;;;;;5076353;28;19924;-93
2023/10/31 03:33:40;;;;;;;;;;;10.00;99.90;;;;;;5050979;28;19929;-91
2023/10/31 03:36:05;;;;;;;;;;;10.00;99.90;;;;;;5076249;28;19925;-93
2023/10/31 03:38:32;;;;;;;;;;;10.10;99.90;;;;;;5055695;28;19960;-93
2023/10/31 03:40:57;;;;;;;;;;;10.00;99.90;;;;;;5046353;28;20291;-94
2023/10/31 03:43:23;;;;;;;;;;;10.00;99.90;;;;;;5039118;28;19933;-93
2023/10/31 03:45:49;;;;;;;;;;;10.00;99.90;;;;;;5051926;28;20016;-95
2023/10/31 03:48:17;;;;;;;;;;;10.10;99.90;;;;;;5073257;28;19925;-93
2023/10/31 03:50:43;;;;;;;;;;;10.10;99.90;;;;;;5043879;28;19995;-94
2023/10/31 03:53:09;;;;;;;;;;;10.10;99.90;;;;;;5041879;28;19970;-90
2023/10/31 03:55:34;;;;;;;;;;;10.10;99.90;;;;;;5054990;28;19928;-91
2023/10/31 03:58:00;;;;;;;;;;;10.10;99.90;;;;;;5054594;28;19956;-91
2023/10/31 04:00:26;;;;;;;;;;;10.00;99.90;;;;;;5072395;28;19929;-94
2023/10/31 04:02:51;;;;;;;;;;;10.10;99.90;;;;;;5066194;28;19928;-94
2023/10/31 04:05:18;;;;;;;;;;;10.00;99.90;;;;;;5059529;28;20008;-93
2023/10/31 04:07:44;;;;;;;;;;;10.00;99.90;;;;;;5040821;28;19929;-94
2023/10/31 04:10:10;;;;;;;;;;;10.00;99.90;;;;;;5054667;28;19932;-93
2023/10/31 04:12:35;;;;;;;;;;;10.00;99.90;;;;;;5056950;28;19935;-90
2023/10/31 04:15:01;;;;;;;;;;;10.00;99.90;;;;;;5057545;28;19946;-94
2023/10/31 04:17:27;;;;;;;;;;;10.00;99.90;;;;;;5036741;28;19932;-93
2023/10/31 04:19:52;;;;;;;;;;;10.00;99.90;;;;;;5073190;28;19933;-91
2023/10/31 04:22:18;;;;;;;;;;;10.00;99.90;;;;;;5072751;28;19929;-93
2023/10/31 04:24:43;;;;;;;;;;;10.00;99.90;;;;;;5024424;28;19925;-92
2023/10/31 04:27:09;;;;;;;;;;;10.00;99.90;;;;;;5071034;28;19925;-92
2023/10/31 04:29:34;;;;;;;;;;;10.00;99.90;;;;;;5054350;28;19967;-93
2023/10/31 04:32:00;;;;;;;;;;;10.00;99.90;;;;;;5040851;28;19936;-95
2023/10/31 04:34:26;;;;;;;;;;;10.00;99.90;;;;;;5056195;28;19929;-95
2023/10/31 04:36:51;;;;;;;;;;;10.00;99.90;;;;;;5048091;28;19960;-89
2023/10/31 04:39:17;;;;;;;;;;;10.00;99.90;;;;;;5048469;28;19931;-89
2023/10/31 04:41:43;;;;;;;;;;;10.00;99.90;;;;;;5041162;28;19925;-93
2023/10/31 04:44:08;;;;;;;;;;;10.00;99.90;;;;;;5028333;28;19928;-92
2023/10/31 04:46:34;;;;;;;;;;;9.90;99.90;;;;;;5071011;28;19940;-92
2023/10/31 04:48:59;;;;;;;;;;;9.90;99.90;;;;;;5039807;28;19929;-91
2023/10/31 04:51:25;;;;;;;;;;;10.00;99.90;;;;;;5070645;28;19992;-94
2023/10/31 04:53:51;;;;;;;;;;;9.90;99.90;;;;;;5056926;28;19932;-91
2023/10/31 04:56:18;;;;;;;;;;;9.90;99.90;;;;;;5053992;28;20591;-94
2023/10/31 04:58:43;;;;;;;;;;;9.90;99.90;;;;;;5040269;28;19924;-94
2023/10/31 05:01:13;;;;;;;;;;;9.90;99.90;;;;;;5072396;28;19925;-92
2023/10/31 05:03:38;;;;;;;;;;;9.90;99.90;;;;;;5053385;28;19924;-95
2023/10/31 05:06:04;;;;;;;;;;;9.90;99.90;;;;;;5018481;28;19933;-92
2023/10/31 05:08:30;;;;;;;;;;;9.90;99.90;;;;;;5035248;28;19932;-92
2023/10/31 05:10:56;;;;;;;;;;;9.90;99.90;;;;;;5050914;28;19932;-93
2023/10/31 05:13:22;;;;;;;;;;;9.90;99.90;;;;;;5052675;28;19933;-92
2023/10/31 05:15:47;;;;;;;;;;;10.00;99.90;;;;;;5038163;28;19950;-90
2023/10/31 05:18:13;;;;;;;;;;;10.00;99.90;;;;;;5020794;28;19929;-91
2023/10/31 05:20:39;;;;;;;;;;;10.00;99.90;;;;;;5033472;28;19947;-93
2023/10/31 05:23:05;;;;;;;;;;;10.00;99.90;;;;;;5070349;28;19925;-93
2023/10/31 05:25:30;;;;;;;;;;;10.00;99.90;;;;;;5054322;28;19960;-91
2023/10/31 05:27:56;;;;;;;;;;;10.00;99.90;;;;;;5051087;28;19937;-91
2023/10/31 05:30:22;;;;;;;;;;;10.00;99.90;;;;;;5069436;28;20507;-90
2023/10/31 05:32:49;;;;;;;;;;;10.00;99.90;;;;;;5080695;28;19925;-94
2023/10/31 05:35:15;;;;;;;;;;;9.90;99.90;;;;;;5056530;28;19926;-92
2023/10/31 05:37:40;;;;;;;;;;;9.90;99.90;;;;;;5059964;28;19929;-90
2023/10/31 05:40:06;;;;;;;;;;;10.00;99.90;;;;;;5094457;28;19935;-92
2023/10/31 05:42:31;;;;;;;;;;;10.00;99.90;;;;;;5016226;28;19929;-90
2023/10/31 05:44:57;;;;;;;;;;;9.90;99.90;;;;;;5089173;28;19940;-92
2023/10/31 05:47:23;;;;;;;;;;;10.00;99.90;;;;;;5059577;28;19925;-91
2023/10/31 05:49:48;;;;;;;;;;;9.90;99.90;;;;;;5019140;28;19929;-91
2023/10/31 05:52:14;;;;;;;;;;;10.00;99.90;;;;;;5036293;28;19929;-93
2023/10/31 05:54:40;;;;;;;;;;;9.90;99.90;;;;;;5041689;28;19948;-93
2023/10/31 05:57:05;;;;;;;;;;;9.90;99.90;;;;;;5061425;28;19925;-92
2023/10/31 05:59:32;;;;;;;;;;;10.00;99.90;;;;;;5059152;28;19952;-92
2023/10/31 06:01:58;;;;;;;;;;;9.90;99.90;;;;;;5073080;28;19929;-93
2023/10/31 06:04:24;;;;;;;;;;;9.90;99.90;;;;;;5042373;28;19972;-93
2023/10/31 06:06:50;;;;;;;;;;;9.90;99.90;;;;;;5063535;28;19940;-93
2023/10/31 06:09:16;;;;;;;;;;;10.00;99.90;;;;;;5079514;28;19928;-93
2023/10/31 06:11:44;;;;;;;;;;;10.00;99.90;;;;;;5059349;28;19932;-90
2023/10/31 06:14:13;;;;;;;;;;;9.90;99.90;;;;;;5051921;28;19924;-94
2023/10/31 06:16:43;;;;;;;;;;;9.90;99.90;;;;;;5047087;28;19928;-93
2023/10/31 06:19:09;;;;;;;;;;;9.90;99.90;;;;;;5048032;28;20036;-93
2023/10/31 06:21:34;;;;;;;;;;;9.90;99.90;;;;;;5042930;28;20017;-92
2023/10/31 06:24:00;;;;;;;;;;;9.90;99.90;;;;;;5062762;28;20015;-92
2023/10/31 06:26:25;;;;;;;;;;;9.90;99.90;;;;;;5076177;28;19924;-93
2023/10/31 06:28:51;;;;;;;;;;;9.90;99.90;;;;;;5059599;28;19950;-92
2023/10/31 06:31:16;;;;;;;;;;;9.90;99.90;;;;;;5059360;28;19959;-91
2023/10/31 06:33:42;;;;;;;;;;;9.90;99.90;;;;;;5059188;28;19929;-92
2023/10/31 06:36:08;;;;;;;;;;;9.90;99.90;;;;;;5091727;28;19967;-93
2023/10/31 06:38:33;;;;;;;;;;;9.90;99.90;;;;;;5071974;28;19928;-94
2023/10/31 06:40:59;;;;;;;;;;;9.90;99.90;;;;;;5054354;28;19924;-95
2023/10/31 06:43:25;;;;;;;;;;;9.90;99.90;;;;;;5042990;28;19924;-92
2023/10/31 06:45:51;;;;;;;;;;;9.90;99.90;;;;;;5046912;28;20302;-93
2023/10/31 06:48:16;;;;;;;;;;;9.90;99.90;;;;;;5081101;28;19948;-93
2023/10/31 06:50:42;;;;;;;;;;;10.00;99.90;;;;;;5030792;28;19929;-92
2023/10/31 06:53:08;;;;;;;;;;;10.00;99.90;;;;;;5065605;28;19925;-93
2023/10/31 06:55:33;;;;;;;;;;;10.00;99.90;;;;;;5060198;28;19924;-93
2023/10/31 06:57:59;;;;;;;;;;;10.00;99.90;;;;;;5063790;28;19989;-93
2023/10/31 07:00:25;;;;;;;;;;;10.00;99.90;;;;;;5033445;28;19924;-92
2023/10/31 07:02:50;;;;;;;;;;;10.10;99.90;;;;;;5039484;28;19951;-92
2023/10/31 07:05:16;;;;;;;;;;;10.10;99.90;;;;;;5060819;28;19964;-93
2023/10/31 07:07:41;;;;;;;;;;;10.10;99.90;;;;;;5079259;28;19999;-93
2023/10/31 07:10:07;;;;;;;;;;;10.10;99.90;;;;;;5050840;28;20375;-94
2023/10/31 07:12:33;;;;;;;;;;;10.10;99.90;;;;;;5044161;28;19960;-93
2023/10/31 07:14:58;;;;;;;;;;;10.10;99.90;;;;;;5066393;28;19975;-94
2023/10/31 07:17:25;;;;;;;;;;;10.10;99.90;;;;;;5031425;28;19924;-94
2023/10/31 07:19:50;;;;;;;;;;;10.20;99.90;;;;;;5051156;28;20031;-94
2023/10/31 07:22:16;;;;;;;;;;;10.20;99.90;;;;;;5079215;28;19924;-93
2023/10/31 07:24:42;;;;;;;;;;;10.20;99.90;;;;;;5060165;28;19933;-94
2023/10/31 07:27:08;;;;;;;;;;;10.20;99.90;;;;;;5066656;28;19924;-92
2023/10/31 07:29:34;;;;;;;;;;;10.30;99.90;;;;;;5082524;28;19929;-93
2023/10/31 07:32:00;;;;;;;;;;;10.30;99.90;;;;;;5067157;28;20324;-93
2023/10/31 07:34:25;;;;;;;;;;;10.30;99.90;;;;;;5074819;28;19933;-90
2023/10/31 07:36:51;;;;;;;;;;;10.30;99.90;;;;;;5065087;28;19924;-93
2023/10/31 07:39:17;;;;;;;;;;;10.30;99.90;;;;;;5061225;28;19928;-91
2023/10/31 07:41:42;;;;;;;;;;;10.40;99.90;;;;;;5033063;28;19970;-92
2023/10/31 07:44:08;;;;;;;;;;;10.40;99.90;;;;;;5060741;28;19925;-92
2023/10/31 07:46:34;;;;;;;;;;;10.50;99.90;;;;;;5080753;28;19946;-93
2023/10/31 07:49:00;;;;;;;;;;;10.50;99.90;;;;;;5046964;28;19928;-91
2023/10/31 07:51:25;;;;;;;;;;;10.50;99.90;;;;;;5059166;28;19974;-94
2023/10/31 07:53:51;;;;;;;;;;;10.60;99.90;;;;;;5035011;28;19924;-92
2023/10/31 07:56:18;;;;;;;;;;;10.60;99.90;;;;;;5080021;28;19931;-93
2023/10/31 07:58:43;;;;;;;;;;;10.60;99.90;;;;;;5093245;28;19928;-94
2023/10/31 08:01:12;;;;;;;;;;;10.70;99.90;;;;;;5063554;28;19987;-92
2023/10/31 08:03:38;;;;;;;;;;;10.70;99.90;;;;;;5066962;28;19924;-92
2023/10/31 08:06:05;;;;;;;;;;;10.80;99.90;;;;;;5078269;28;20398;-92
2023/10/31 08:08:30;;;;;;;;;;;10.80;99.90;;;;;;5082906;28;19939;-92
2023/10/31 08:10:57;;;;;;;;;;;10.90;99.90;;;;;;5052890;28;20201;-93
2023/10/31 08:13:22;;;;;;;;;;;10.90;99.90;;;;;;5034137;28;19928;-92
2023/10/31 08:15:48;;;;;;;;;;;11.00;99.90;;;;;;5067721;28;19935;-92
2023/10/31 08:18:13;;;;;;;;;;;11.00;99.90;;;;;;5069741;28;19942;-92
2023/10/31 08:20:39;;;;;;;;;;;11.10;99.90;;;;;;5071750;28;19964;-93
2023/10/31 08:23:05;;;;;;;;;;;11.10;99.90;;;;;;5036164;28;19946;-93
2023/10/31 08:25:30;;;;;;;;;;;11.20;99.90;;;;;;5068271;28;19932;-94
2023/10/31 08:27:56;;;;;;;;;;;11.30;99.90;;;;;;5044897;28;19990;-91
2023/10/31 08:30:22;;;;;;;;;;;11.30;99.90;;;;;;5078047;28;19928;-94
2023/10/31 08:32:47;;;;;;;;;;;11.40;99.90;;;;;;5063988;28;19947;-92
2023/10/31 08:35:13;;;;;;;;;;;11.30;99.90;;;;;;5059986;28;19932;-92
2023/10/31 08:37:39;;;;;;;;;;;11.30;99.90;;;;;;5076617;28;19939;-93
2023/10/31 08:40:05;;;;;;;;;;;11.40;99.90;;;;;;5048619;28;19924;-91
2023/10/31 08:42:30;;;;;;;;;;;11.40;99.90;;;;;;5043116;28;19924;-91
2023/10/31 08:44:56;;;;;;;;;;;11.40;99.90;;;;;;5058857;28;19928;-91
2023/10/31 08:47:22;;;;;;;;;;;11.40;99.90;;;;;;5087924;28;20284;-91
2023/10/31 08:49:48;;;;;;;;;;;11.50;99.90;;;;;;5031186;28;19936;-91
2023/10/31 08:52:14;;;;;;;;;;;11.50;99.90;;;;;;5045225;28;19961;-91
2023/10/31 08:54:39;;;;;;;;;;;11.50;99.90;;;;;;5029584;28;19924;-92
2023/10/31 08:57:05;;;;;;;;;;;11.60;99.90;;;;;;5076371;28;20356;-91
2023/10/31 08:59:30;;;;;;;;;;;11.60;99.90;;;;;;5059496;28;19962;-92
2023/10/31 09:01:56;;;;;;;;;;;11.70;99.90;;;;;;5048044;28;20003;-89
2023/10/31 09:04:22;;;;;;;;;;;11.70;99.90;;;;;;5042562;28;21600;-92
2023/10/31 09:06:47;;;;;;;;;;;11.70;99.90;;;;;;5088729;28;20707;-90
2023/10/31 09:09:13;;;;;;;;;;;11.80;99.90;;;;;;5023657;28;20007;-92
2023/10/31 09:11:39;;;;;;;;;;;11.90;99.90;;;;;;5073894;28;19987;-90
2023/10/31 09:14:04;;;;;;;;;;;12.00;99.90;;;;;;5070716;28;20253;-90
2023/10/31 09:16:30;;;;;;;;;;;12.00;99.90;;;;;;5055912;28;19929;-92
2023/10/31 09:18:55;;;;;;;;;;;12.10;99.90;;;;;;5023320;28;19928;-91
2023/10/31 09:21:21;;;;;;;;;;;12.10;99.90;;;;;;5052660;28;19968;-92
2023/10/31 09:23:47;;;;;;;;;;;12.30;99.90;;;;;;5070753;28;19928;-93
2023/10/31 09:26:13;;;;;;;;;;;12.50;99.90;;;;;;5071856;28;19932;-93
2023/10/31 09:28:40;;;;;;;;;;;12.80;99.90;;;;;;5038845;28;19924;-93
2023/10/31 09:31:05;;;;;;;;;;;12.80;99.90;;;;;;5035965;28;19928;-94
2023/10/31 09:33:31;;;;;;;;;;;12.80;99.90;;;;;;5052132;28;20047;-94
2023/10/31 09:35:57;;;;;;;;;;;12.80;99.90;;;;;;5065881;28;20055;-93
2023/10/31 09:38:23;;;;;;;;;;;12.70;99.90;;;;;;5084626;28;19959;-92
2023/10/31 09:40:50;;;;;;;;;;;12.70;99.90;;;;;;5023253;28;19928;-92
2023/10/31 09:43:16;;;;;;;;;;;12.70;99.90;;;;;;5043200;28;20049;-94
2023/10/31 09:45:42;;;;;;;;;;;12.70;99.90;;;;;;5050614;28;19931;-92
2023/10/31 09:48:07;;;;;;;;;;;12.70;99.90;;;;;;5058998;28;20404;-92
2023/10/31 09:50:33;;;;;;;;;;;12.60;99.90;;;;;;5060741;28;19992;-92
2023/10/31 09:52:59;;;;;;;;;;;12.60;99.90;;;;;;5044309;28;19982;-90
2023/10/31 09:55:25;;;;;;;;;;;12.60;99.90;;;;;;5049602;28;19946;-92
2023/10/31 09:57:51;;;;;;;;;;;12.60;99.90;;;;;;5080140;28;19924;-93
2023/10/31 10:00:17;;;;;;;;;;;12.70;99.90;;;;;;5061032;28;19947;-92
2023/10/31 10:02:43;;;;;;;;;;;12.80;99.90;;;;;;5053787;28;19935;-93
2023/10/31 10:05:09;;;;;;;;;;;13.00;99.90;;;;;;5078625;28;19924;-94
2023/10/31 10:07:37;;;;;;;;;;;13.00;99.90;;;;;;5066895;28;19991;-93
2023/10/31 10:10:03;;;;;;;;;;;13.10;99.90;;;;;;5081239;28;19935;-93
2023/10/31 10:12:29;;;;;;;;;;;13.10;99.90;;;;;;5049593;28;19929;-92
2023/10/31 10:14:54;;;;;;;;;;;13.00;99.90;;;;;;5049637;28;19931;-91
2023/10/31 10:17:24;;;;;;;;;;;12.90;99.90;;;;;;5060705;28;19924;-93
2023/10/31 10:20:07;;;;;;;;;;;12.70;99.90;;;;;;5058756;28;20463;-91
2023/10/31 10:22:36;;;;;;;;;;;12.50;99.90;;;;;;5046567;28;19924;-91
2023/10/31 10:25:01;;;;;;;;;;;12.30;99.90;;;;;;5048587;28;19935;-91
2023/10/31 10:27:27;;;;;;;;;;;12.20;99.90;;;;;;5048178;28;19925;-91
2023/10/31 10:29:53;;;;;;;;;;;12.00;99.90;;;;;;5065567;28;20000;-94
2023/10/31 10:32:18;;;;;;;;;;;12.00;99.90;;;;;;5075462;28;19931;-92
2023/10/31 10:34:45;;;;;;;;;;;12.00;99.90;;;;;;5048729;28;20019;-91
2023/10/31 10:37:11;;;;;;;;;;;12.00;99.90;;;;;;5034595;28;19932;-94
2023/10/31 10:39:39;;;;;;;;;;;12.10;99.90;;;;;;5061333;28;19924;-93
2023/10/31 10:42:07;;;;;;;;;;;12.20;99.90;;;;;;5050963;28;19928;-92
2023/10/31 10:44:33;;;;;;;;;;;12.20;99.90;;;;;;5041678;28;19928;-93
2023/10/31 10:47:01;;;;;;;;;;;12.30;99.90;;;;;;5051028;28;19925;-93
2023/10/31 10:49:27;;;;;;;;;;;12.30;99.90;;;;;;5082115;28;19925;-95
2023/10/31 10:51:54;;;;;;;;;;;12.50;99.90;;;;;;5061146;28;20022;-92
2023/10/31 10:54:27;;;;;;;;;;;12.50;99.90;;;;;;5047304;28;20333;-93
2023/10/31 10:57:03;;;;;;;;;;;12.50;99.90;;;;;;5049218;28;19933;-92
2023/10/31 10:59:39;;;;;;;;;;;12.50;99.90;;;;;;5045269;28;19925;-94
2023/10/31 11:02:06;;;;;;;;;;;12.50;99.90;;;;;;5046561;28;19931;-94
2023/10/31 11:04:32;;;;;;;;;;;12.50;99.90;;;;;;5034202;28;19928;-94
2023/10/31 11:06:58;;;;;;;;;;;12.40;99.90;;;;;;5061850;28;19938;-93
2023/10/31 11:09:24;;;;;;;;;;;12.40;99.90;;;;;;5034784;28;20007;-94
2023/10/31 11:11:50;;;;;;;;;;;12.30;99.90;;;;;;5082414;28;19980;-93
2023/10/31 11:14:16;;;;;;;;;;;12.30;99.90;;;;;;5051496;28;19936;-94
2023/10/31 11:16:48;;;;;;;;;;;12.30;99.90;;;;;;5026433;28;19929;-92
2023/10/31 11:19:13;;;;;;;;;;;12.30;99.90;;;;;;5042136;28;19925;-92
2023/10/31 11:21:58;;;;;;;;;;;12.30;99.90;;;;;;5061906;28;19931;-94
2023/10/31 11:24:37;;;;;;;;;;;12.30;99.90;;;;;;5063993;28;19933;-94
2023/10/31 11:27:05;;;;;;;;;;;12.20;99.90;;;;;;5071438;28;19941;-94
2023/10/31 11:29:31;;;;;;;;;;;12.20;99.90;;;;;;5070721;28;19929;-92
2023/10/31 11:31:57;;;;;;;;;;;12.10;99.90;;;;;;5054693;28;19996;-93
2023/10/31 11:34:23;;;;;;;;;;;12.10;99.90;;;;;;5078308;28;19963;-92
2023/10/31 11:36:50;;;;;;;;;;;12.10;99.90;;;;;;5045837;28;19924;-93
2023/10/31 11:39:20;;;;;;;;;;;12.10;99.90;;;;;;5068415;28;19931;-94
2023/10/31 11:41:50;;;;;;;;;;;12.10;99.90;;;;;;5048222;28;19944;-95
2023/10/31 11:44:16;;;;;;;;;;;12.20;99.90;;;;;;5064540;28;19951;-95
2023/10/31 11:46:42;;;;;;;;;;;12.30;99.90;;;;;;5036233;28;19932;-92
2023/10/31 11:49:07;;;;;;;;;;;12.30;99.90;;;;;;5085485;28;19924;-93
2023/10/31 11:51:33;;;;;;;;;;;12.30;99.90;;;;;;5035778;28;19924;-93
2023/10/31 11:54:01;;;;;;;;;;;12.50;99.90;;;;;;5084519;28;20630;-92
2023/10/31 11:56:26;;;;;;;;;;;12.50;99.90;;;;;;5056917;28;20288;-92
2023/10/31 11:58:56;;;;;;;;;;;12.60;99.90;;;;;;5082604;28;19935;-93
2023/10/31 12:01:21;;;;;;;;;;;12.80;99.90;;;;;;5063453;28;20133;-94
2023/10/31 12:03:47;;;;;;;;;;;13.00;99.90;;;;;;5067221;28;19924;-94
2023/10/31 12:06:13;;;;;;;;;;;13.20;99.90;;;;;;5105127;28;19968;-92
2023/10/31 12:08:40;;;;;;;;;;;13.20;99.90;;;;;;5069936;28;20437;-93
2023/10/31 12:11:09;;;;;;;;;;;13.30;99.90;;;;;;5043456;28;19924;-92
2023/10/31 12:13:36;;;;;;;;;;;13.10;99.90;;;;;;5028167;28;19925;-93
2023/10/31 12:16:02;;;;;;;;;;;13.00;99.90;;;;;;5073242;28;19924;-94
2023/10/31 12:18:28;;;;;;;;;;;12.90;99.90;;;;;;5030490;28;19954;-93
2023/10/31 12:20:53;;;;;;;;;;;12.90;99.90;;;;;;5098154;28;19931;-90
2023/10/31 12:23:19;;;;;;;;;;;12.80;99.90;;;;;;5079793;28;19924;-91
2023/10/31 12:25:45;;;;;;;;;;;12.80;99.90;;;;;;5088702;28;19998;-93
2023/10/31 12:28:16;;;;;;;;;;;12.70;99.90;;;;;;5055671;28;19928;-93
2023/10/31 12:30:46;;;;;;;;;;;12.60;99.90;;;;;;5045072;28;19935;-93
2023/10/31 12:33:12;;;;;;;;;;;12.60;99.90;;;;;;5066607;28;19924;-92
2023/10/31 12:35:38;;;;;;;;;;;12.50;99.90;;;;;;5045742;28;19924;-92
2023/10/31 12:38:04;;;;;;;;;;;12.40;99.90;;;;;;5047243;28;19946;-91
2023/10/31 12:40:30;;;;;;;;;;;12.40;99.90;;;;;;5062548;28;19929;-92
2023/10/31 12:42:56;;;;;;;;;;;12.30;99.90;;;;;;5039446;28;20066;-93
2023/10/31 12:45:22;;;;;;;;;;;12.10;99.90;;;;;;5075582;28;19924;-92
2023/10/31 12:48:01;;;;;;;;;;;12.10;99.90;;;;;;5061846;28;19928;-92
2023/10/31 12:50:27;;;;;;;;;;;12.00;99.90;;;;;;5046694;28;19932;-91
2023/10/31 12:52:53;;;;;;;;;;;12.00;99.90;;;;;;5058880;28;20014;-91
2023/10/31 12:55:20;;;;;;;;;;;12.00;99.90;;;;;;5020151;28;19931;-91
2023/10/31 12:57:46;;;;;;;;;;;12.20;99.90;;;;;;5068517;28;20460;-91
2023/10/31 13:00:12;;;;;;;;;;;12.50;99.90;;;;;;5080666;28;19987;-91
2023/10/31 13:02:39;;;;;;;;;;;12.80;99.90;;;;;;5063641;28;19928;-89
2023/10/31 13:05:09;;;;;;;;;;;13.00;99.90;;;;;;5080448;28;19925;-90
2023/10/31 13:07:34;;;;;;;;;;;13.30;99.90;;;;;;5079665;28;19925;-91
2023/10/31 13:10:00;;;;;;;;;;;13.50;99.90;;;;;;5032756;28;19940;-91
2023/10/31 13:12:27;;;;;;;;;;;13.60;99.90;;;;;;5051240;28;19929;-91
2023/10/31 13:14:53;;;;;;;;;;;13.90;99.90;;;;;;5084487;28;19950;-92
2023/10/31 13:17:18;;;;;;;;;;;14.10;99.90;;;;;;5044765;28;19924;-91
2023/10/31 13:19:44;;;;;;;;;;;14.30;99.90;;;;;;5026589;28;20130;-90
2023/10/31 13:22:10;;;;;;;;;;;14.30;99.90;;;;;;5066417;28;19946;-89
2023/10/31 13:24:35;;;;;;;;;;;14.00;99.90;;;;;;5045884;28;19942;-92
2023/10/31 13:27:02;;;;;;;;;;;13.70;99.90;;;;;;5075254;28;19963;-92
2023/10/31 13:29:28;;;;;;;;;;;13.40;99.90;;;;;;5065846;28;19924;-92
2023/10/31 13:31:54;;;;;;;;;;;13.10;99.90;;;;;;5060802;28;19924;-91
2023/10/31 13:34:19;;;;;;;;;;;12.90;99.90;;;;;;5084831;28;19968;-92
2023/10/31 13:36:45;;;;;;;;;;;12.70;99.90;;;;;;5034752;28;19940;-92
2023/10/31 13:39:10;;;;;;;;;;;12.60;99.90;;;;;;5059806;28;19924;-92
2023/10/31 13:41:36;;;;;;;;;;;12.50;99.90;;;;;;5025813;28;19931;-93
2023/10/31 13:44:03;;;;;;;;;;;12.40;99.90;;;;;;5054933;28;19929;-93
2023/10/31 13:46:29;;;;;;;;;;;12.40;99.90;;;;;;5080423;28;19924;-92
2023/10/31 13:48:54;;;;;;;;;;;12.30;99.90;;;;;;5057206;28;19950;-92
2023/10/31 13:51:20;;;;;;;;;;;12.30;99.90;;;;;;5041506;28;19947;-92
2023/10/31 13:53:45;;;;;;;;;;;12.30;99.90;;;;;;5020812;28;20359;-92
2023/10/31 13:56:11;;;;;;;;;;;12.30;99.90;;;;;;5034939;28;19928;-93
2023/10/31 13:58:37;;;;;;;;;;;12.20;99.90;;;;;;5063067;28;19935;-92
2023/10/31 14:01:02;;;;;;;;;;;12.10;99.90;;;;;;5023241;28;19988;-93
2023/10/31 14:03:28;;;;;;;;;;;12.10;99.90;;;;;;5038590;28;19931;-93
2023/10/31 14:05:55;;;;;;;;;;;12.10;99.90;;;;;;5058487;28;19939;-94
2023/10/31 14:08:20;;;;;;;;;;;12.20;99.90;;;;;;5020055;28;19971;-92
2023/10/31 14:10:47;;;;;;;;;;;12.20;99.90;;;;;;5051991;28;19925;-92
2023/10/31 14:13:13;;;;;;;;;;;12.30;99.90;;;;;;5074117;28;19955;-93